Oceanus — WXAQ — position and weather

sailwx.info

Track history (hours):
 
Tides and Currents Weather Stations Pressure Air Temp Water Temp Dewpoint Dewpoint Depression Visibility Wind Speed Wind Dir Waves Ship Positions

Oceanographic research ship Oceanus (USA)

Detailed information on ship capabilities available from University of Delaware's Ocean Information Center and ARCUS's ALIAS (Arctic Logistics Information and Support) project.

Owner: Oregon State University, Newport, OR. More information available from US FCC via Universal Licensing System.

Last reported at 2017-Jun-25 17:11 UTC. Time now 2017-Jun-28 12:30 UTC.
Position N 48°08' W 128°05'.

Length 23 m; draft 7.2 m.

Type: Other ship. MMSI: 367977000.

Date/timePositionNaut miles runAvg speedWind from/ knotsBaromVisibWave heightAir tempDewpointWater temp
2017-Jun-25 17:11N 48°08' W 128°05'4011.2
2017-Jun-25 13:36N 47°36' W 127°29'211.5
2017-Jun-25 13:25N 47°34' W 127°27'511.3
2017-Jun-25 13:00N 47°30' W 127°22'611.3
2017-Jun-25 12:29N 47°26' W 127°17'611.4
2017-Jun-25 11:58N 47°21' W 127°12'711.4
2017-Jun-25 11:22N 47°16' W 127°06'611.6
2017-Jun-25 10:52N 47°11' W 127°00'411.6
2017-Jun-25 10:30N 47°08' W 126°57'611.4
2017-Jun-25 10:00N 47°03' W 126°51'611.3
2017-Jun-25 09:30N 46°59' W 126°46'611.7
2017-Jun-25 09:00N 46°54' W 126°41'611.5
2017-Jun-25 08:30N 46°50' W 126°36'611.6
2017-Jun-25 08:00N 46°45' W 126°31'611.9
2017-Jun-25 07:30N 46°41' W 126°25'611.9
2017-Jun-25 07:00N 46°36' W 126°20'612.1
2017-Jun-25 06:30N 46°31' W 126°15'612.0
2017-Jun-25 06:00N 46°26' W 126°09'612.1
2017-Jun-25 05:30N 46°22' W 126°04'612.1
2017-Jun-25 04:59N 46°17' W 125°58'612.4
2017-Jun-25 04:30N 46°12' W 125°53'612.0
2017-Jun-25 04:00N 46°07' W 125°48'611.5
2017-Jun-25 03:30N 46°02' W 125°43'611.7
2017-Jun-25 03:01N 45°57' W 125°39'5 9.9
2017-Jun-25 02:30N 45°54' W 125°34'611.7
2017-Jun-25 02:00N 45°49' W 125°28'611.6
2017-Jun-25 01:29N 45°45' W 125°23'611.7
2017-Jun-25 01:00N 45°40' W 125°18'611.6
2017-Jun-25 00:31N 45°36' W 125°13'611.5
2017-Jun-25 00:00N 45°31' W 125°08'611.5
2017-Jun-24 23:30N 45°27' W 125°03'611.5
2017-Jun-24 23:00N 45°22' W 124°58'611.7
2017-Jun-24 22:30N 45°18' W 124°53'611.6
2017-Jun-24 22:00N 45°13' W 124°47'611.6
2017-Jun-24 21:30N 45°08' W 124°42'611.4
2017-Jun-24 21:01N 45°04' W 124°37'611.4
2017-Jun-24 20:30N 44°59' W 124°32'2411.2
2017-Jun-24 18:24N 44°41' W 124°12'410.4
2017-Jun-24 18:00N 44°37' W 124°08'3 5.7
2017-Jun-24 17:29N 44°37' W 124°04'  
2017-Jun-19 15:26N 44°38' W 124°03'3 7.0
2017-Jun-19 15:00N 44°36' W 124°07'10 9.0
2017-Jun-19 13:52N 44°43' W 124°18'3 9.0
2017-Jun-19 13:29N 44°45' W 124°22'6 9.8
2017-Jun-19 12:53N 44°48' W 124°28'1112.2
2017-Jun-19 11:58N 44°55' W 124°41'712.2
2017-Jun-19 11:26N 44°59' W 124°48'512.2
2017-Jun-19 11:00N 45°02' W 124°54'712.2
2017-Jun-19 10:26N 45°07' W 125°02'1012.2
2017-Jun-19 09:35N 45°13' W 125°13'111.9
2017-Jun-19 09:28N 45°14' W 125°15'611.1
2017-Jun-19 08:56N 45°17' W 125°22'2 4.2
2017-Jun-19 08:20N 45°19' W 125°21'612.8
2017-Jun-19 07:52N 45°24' W 125°17'3 8.2
2017-Jun-19 07:30N 45°27' W 125°15'3 6.6
2017-Jun-19 06:59N 45°30' W 125°12'712.5
2017-Jun-19 06:26N 45°36' W 125°08'612.6
2017-Jun-19 06:00N 45°41' W 125°05'612.4
2017-Jun-19 05:30N 45°46' W 125°01'4 8.3
2017-Jun-19 05:00N 45°50' W 124°58'1 2.5
2017-Jun-19 04:31N 45°51' W 124°56'1 2.0
2017-Jun-19 04:00N 45°51' W 124°55'1 2.1
2017-Jun-19 03:30N 45°51' W 124°54'1 2.3
2017-Jun-19 03:00N 45°52' W 124°52'0 0.9
2017-Jun-19 02:30N 45°52' W 124°51'0 0.2
2017-Jun-19 02:00N 45°52' W 124°51'0 0.0
2017-Jun-19 01:31N 45°52' W 124°51'0 0.0
2017-Jun-19 01:01N 45°52' W 124°51'2 4.1
2017-Jun-19 00:30N 45°51' W 124°54'510.7
2017-Jun-19 00:00N 45°48' W 125°00'4 8.0
2017-Jun-18 23:30N 45°46' W 125°05'0 0.2
2017-Jun-18 23:01N 45°45' W 125°05'0 0.2
2017-Jun-18 22:30N 45°45' W 125°05'0 0.1
2017-Jun-18 22:00N 45°45' W 125°05'0 0.0
2017-Jun-18 21:29N 45°45' W 125°05'0 0.1
2017-Jun-18 21:00N 45°45' W 125°05'1 1.9
2017-Jun-18 20:30N 45°46' W 125°03'611.4
2017-Jun-18 20:01N 45°49' W 124°57'611.1
2017-Jun-18 19:30N 45°53' W 124°50'511.2
2017-Jun-18 19:01N 45°56' W 124°44'611.1
2017-Jun-18 18:31N 45°59' W 124°37'611.1
2017-Jun-18 18:00N 46°02' W 124°31'4 8.2
2017-Jun-18 17:31N 46°05' W 124°26'0 0.8
2017-Jun-18 17:01N 46°05' W 124°25'0 0.2
2017-Jun-18 16:31N 46°05' W 124°26'0 0.0
2017-Jun-18 16:00N 46°05' W 124°26'0 0.0
2017-Jun-18 15:30N 46°05' W 124°26'0 0.0
2017-Jun-18 15:01N 46°05' W 124°26'0 0.0
2017-Jun-18 14:01N 46°05' W 124°26'0 0.9
2017-Jun-18 13:31N 46°05' W 124°26'5 9.9
2017-Jun-18 13:01N 46°02' W 124°32'611.3
2017-Jun-18 12:31N 45°58' W 124°38'611.3
2017-Jun-18 12:01N 45°54' W 124°44'611.5
2017-Jun-18 11:30N 45°50' W 124°50'611.4
2017-Jun-18 11:01N 45°46' W 124°56'611.3
2017-Jun-18 10:30N 45°43' W 125°03'611.3
2017-Jun-18 10:00N 45°39' W 125°09'5 4.6
2017-Jun-18 09:00N 45°36' W 125°13'1 1.9
2017-Jun-18 08:31N 45°36' W 125°12'2 3.3
2017-Jun-18 08:00N 45°38' W 125°12'510.4
2017-Jun-18 07:30N 45°42' W 125°07'3 6.2
2017-Jun-18 07:00N 45°44' W 125°05'2 3.4
2017-Jun-18 06:30N 45°46' W 125°05'2 3.5
2017-Jun-18 06:00N 45°48' W 125°05'2 3.4
2017-Jun-18 05:30N 45°49' W 125°05'5 9.0
2017-Jun-18 05:00N 45°52' W 124°59'3 5.8
2017-Jun-18 04:30N 45°53' W 124°55'1 2.7
2017-Jun-18 04:00N 45°53' W 124°53'1 1.8
2017-Jun-18 03:31N 45°53' W 124°52'0 0.0
2017-Jun-18 03:00N 45°53' W 124°52'0 0.0
2017-Jun-18 02:30N 45°53' W 124°52'0 0.0
2017-Jun-18 02:00N 45°53' W 124°52'0 0.0
2017-Jun-18 01:31N 45°53' W 124°52'0 0.1
2017-Jun-18 01:00N 45°53' W 124°52'0 0.0
2017-Jun-18 00:30N 45°53' W 124°52'0 0.0
2017-Jun-18 00:00N 45°53' W 124°52'0 0.0
2017-Jun-17 23:30N 45°53' W 124°52'0 0.1
2017-Jun-17 23:01N 45°53' W 124°52'1 2.2
2017-Jun-17 22:31N 45°53' W 124°53'3 5.1
2017-Jun-17 22:00N 45°55' W 124°51'510.1
2017-Jun-17 21:31N 45°59' W 124°47'510.2
2017-Jun-17 21:01N 46°03' W 124°43'510.6
2017-Jun-17 20:31N 46°08' W 124°39'510.9
2017-Jun-17 20:00N 46°12' W 124°35'510.7
2017-Jun-17 19:31N 46°17' W 124°30'510.5
2017-Jun-17 19:01N 46°21' W 124°27'5 9.9
2017-Jun-17 18:30N 46°25' W 124°23'3 6.1
2017-Jun-17 18:01N 46°28' W 124°21'1 1.1
2017-Jun-17 17:31N 46°28' W 124°21'1 2.3
2017-Jun-17 17:01N 46°29' W 124°21'0 0.7
2017-Jun-17 16:31N 46°29' W 124°21'1 1.3
2017-Jun-17 16:00N 46°28' W 124°21'0 0.4
2017-Jun-17 15:31N 46°28' W 124°21'0 0.2
2017-Jun-17 15:01N 46°28' W 124°21'0 0.3
2017-Jun-17 14:31N 46°28' W 124°21'0 0.2
2017-Jun-17 13:31N 46°28' W 124°21'1 2.2
2017-Jun-17 13:01N 46°29' W 124°21'1 2.0
2017-Jun-17 12:30N 46°29' W 124°20'2 4.3
2017-Jun-17 12:01N 46°28' W 124°21'3 5.3
2017-Jun-17 11:31N 46°27' W 124°25'510.5
2017-Jun-17 11:00N 46°24' W 124°32'510.6
2017-Jun-17 10:31N 46°22' W 124°38'510.4
2017-Jun-17 10:01N 46°20' W 124°45'510.5
2017-Jun-17 09:31N 46°18' W 124°52'510.7
2017-Jun-17 09:00N 46°16' W 124°60'510.6
2017-Jun-17 08:30N 46°14' W 125°07'3 1.3
2017-Jun-17 06:06N 46°13' W 125°11'1 0.2
2017-Jun-17 03:00N 46°13' W 125°12'9 0.6
2017-Jun-16 11:33N 46°19' W 125°20'1 8.8
2017-Jun-16 11:26N 46°20' W 125°19'4 8.8
2017-Jun-16 11:00N 46°21' W 125°13'4 8.6
2017-Jun-16 10:30N 46°22' W 125°07'2 3.6
2017-Jun-16 10:00N 46°20' W 125°09'5 7.5
2017-Jun-16 09:22N 46°16' W 125°11'3 8.1
2017-Jun-16 08:59N 46°13' W 125°12'3 4.5
2017-Jun-16 08:17N 46°10' W 125°14'2 7.9
2017-Jun-16 08:00N 46°08' W 125°16'2 4.6
2017-Jun-16 07:30N 46°06' W 125°17'4 7.2
2017-Jun-16 06:57N 46°03' W 125°20'7 8.3
2017-Jun-16 06:10N 45°57' W 125°25'18 1.7
2017-Jun-15 19:35N 45°40' W 125°14'1 3.2
2017-Jun-15 19:18N 45°40' W 125°14'1 3.1
2017-Jun-15 18:57N 45°41' W 125°13'1 2.9
2017-Jun-15 18:30N 45°42' W 125°11'1 2.6
2017-Jun-15 18:00N 45°43' W 125°10'1 2.7
2017-Jun-15 17:30N 45°44' W 125°09'  
Track history (hours):
 
Tides and Currents Weather Stations Pressure Air Temp Water Temp Dewpoint Dewpoint Depression Visibility Wind Speed Wind Dir Waves Ship Positions

Oceanographic research ship Oceanus (USA)

Detailed information on ship capabilities available from University of Delaware's Ocean Information Center and ARCUS's ALIAS (Arctic Logistics Information and Support) project.

Owner: Oregon State University, Newport, OR. More information available from US FCC via Universal Licensing System.

Last reported at 2017-Jun-25 17:11 UTC. Time now 2017-Jun-28 12:30 UTC.
Position N 48°08' W 128°05'.

Length 23 m; draft 7.2 m.

Type: Other ship. MMSI: 367977000.

Date/timePositionNaut miles runAvg speedWind from/ knotsBaromVisibWave heightAir tempDewpointWater temp
2017-Jun-25 17:11N 48°08' W 128°05'4011.2
2017-Jun-25 13:36N 47°36' W 127°29'211.5
2017-Jun-25 13:25N 47°34' W 127°27'511.3
2017-Jun-25 13:00N 47°30' W 127°22'611.3
2017-Jun-25 12:29N 47°26' W 127°17'611.4
2017-Jun-25 11:58N 47°21' W 127°12'711.4
2017-Jun-25 11:22N 47°16' W 127°06'611.6
2017-Jun-25 10:52N 47°11' W 127°00'411.6
2017-Jun-25 10:30N 47°08' W 126°57'611.4
2017-Jun-25 10:00N 47°03' W 126°51'611.3
2017-Jun-25 09:30N 46°59' W 126°46'611.7
2017-Jun-25 09:00N 46°54' W 126°41'611.5
2017-Jun-25 08:30N 46°50' W 126°36'611.6
2017-Jun-25 08:00N 46°45' W 126°31'611.9
2017-Jun-25 07:30N 46°41' W 126°25'611.9
2017-Jun-25 07:00N 46°36' W 126°20'612.1
2017-Jun-25 06:30N 46°31' W 126°15'612.0
2017-Jun-25 06:00N 46°26' W 126°09'612.1
2017-Jun-25 05:30N 46°22' W 126°04'612.1
2017-Jun-25 04:59N 46°17' W 125°58'612.4
2017-Jun-25 04:30N 46°12' W 125°53'612.0
2017-Jun-25 04:00N 46°07' W 125°48'611.5
2017-Jun-25 03:30N 46°02' W 125°43'611.7
2017-Jun-25 03:01N 45°57' W 125°39'5 9.9
2017-Jun-25 02:30N 45°54' W 125°34'611.7
2017-Jun-25 02:00N 45°49' W 125°28'611.6
2017-Jun-25 01:29N 45°45' W 125°23'611.7
2017-Jun-25 01:00N 45°40' W 125°18'611.6
2017-Jun-25 00:31N 45°36' W 125°13'611.5
2017-Jun-25 00:00N 45°31' W 125°08'611.5
2017-Jun-24 23:30N 45°27' W 125°03'611.5
2017-Jun-24 23:00N 45°22' W 124°58'611.7
2017-Jun-24 22:30N 45°18' W 124°53'611.6
2017-Jun-24 22:00N 45°13' W 124°47'611.6
2017-Jun-24 21:30N 45°08' W 124°42'611.4
2017-Jun-24 21:01N 45°04' W 124°37'611.4
2017-Jun-24 20:30N 44°59' W 124°32'2411.2
2017-Jun-24 18:24N 44°41' W 124°12'410.4
2017-Jun-24 18:00N 44°37' W 124°08'3 5.7
2017-Jun-24 17:29N 44°37' W 124°04'  
2017-Jun-19 15:26N 44°38' W 124°03'3 7.0
2017-Jun-19 15:00N 44°36' W 124°07'10 9.0
2017-Jun-19 13:52N 44°43' W 124°18'3 9.0
2017-Jun-19 13:29N 44°45' W 124°22'6 9.8
2017-Jun-19 12:53N 44°48' W 124°28'1112.2
2017-Jun-19 11:58N 44°55' W 124°41'712.2
2017-Jun-19 11:26N 44°59' W 124°48'512.2
2017-Jun-19 11:00N 45°02' W 124°54'712.2
2017-Jun-19 10:26N 45°07' W 125°02'1012.2
2017-Jun-19 09:35N 45°13' W 125°13'111.9
2017-Jun-19 09:28N 45°14' W 125°15'611.1
2017-Jun-19 08:56N 45°17' W 125°22'2 4.2
2017-Jun-19 08:20N 45°19' W 125°21'612.8
2017-Jun-19 07:52N 45°24' W 125°17'3 8.2
2017-Jun-19 07:30N 45°27' W 125°15'3 6.6
2017-Jun-19 06:59N 45°30' W 125°12'712.5
2017-Jun-19 06:26N 45°36' W 125°08'612.6
2017-Jun-19 06:00N 45°41' W 125°05'612.4
2017-Jun-19 05:30N 45°46' W 125°01'4 8.3
2017-Jun-19 05:00N 45°50' W 124°58'1 2.5
2017-Jun-19 04:31N 45°51' W 124°56'1 2.0
2017-Jun-19 04:00N 45°51' W 124°55'1 2.1
2017-Jun-19 03:30N 45°51' W 124°54'1 2.3
2017-Jun-19 03:00N 45°52' W 124°52'0 0.9
2017-Jun-19 02:30N 45°52' W 124°51'0 0.2
2017-Jun-19 02:00N 45°52' W 124°51'0 0.0
2017-Jun-19 01:31N 45°52' W 124°51'0 0.0
2017-Jun-19 01:01N 45°52' W 124°51'2 4.1
2017-Jun-19 00:30N 45°51' W 124°54'510.7
2017-Jun-19 00:00N 45°48' W 125°00'4 8.0
2017-Jun-18 23:30N 45°46' W 125°05'0 0.2
2017-Jun-18 23:01N 45°45' W 125°05'0 0.2
2017-Jun-18 22:30N 45°45' W 125°05'0 0.1
2017-Jun-18 22:00N 45°45' W 125°05'0 0.0
2017-Jun-18 21:29N 45°45' W 125°05'0 0.1
2017-Jun-18 21:00N 45°45' W 125°05'1 1.9
2017-Jun-18 20:30N 45°46' W 125°03'611.4
2017-Jun-18 20:01N 45°49' W 124°57'611.1
2017-Jun-18 19:30N 45°53' W 124°50'511.2
2017-Jun-18 19:01N 45°56' W 124°44'611.1
2017-Jun-18 18:31N 45°59' W 124°37'611.1
2017-Jun-18 18:00N 46°02' W 124°31'4 8.2
2017-Jun-18 17:31N 46°05' W 124°26'0 0.8
2017-Jun-18 17:01N 46°05' W 124°25'0 0.2
2017-Jun-18 16:31N 46°05' W 124°26'0 0.0
2017-Jun-18 16:00N 46°05' W 124°26'0 0.0
2017-Jun-18 15:30N 46°05' W 124°26'0 0.0
2017-Jun-18 15:01N 46°05' W 124°26'0 0.0
2017-Jun-18 14:01N 46°05' W 124°26'0 0.9
2017-Jun-18 13:31N 46°05' W 124°26'5 9.9
2017-Jun-18 13:01N 46°02' W 124°32'611.3
2017-Jun-18 12:31N 45°58' W 124°38'611.3
2017-Jun-18 12:01N 45°54' W 124°44'611.5
2017-Jun-18 11:30N 45°50' W 124°50'611.4
2017-Jun-18 11:01N 45°46' W 124°56'611.3
2017-Jun-18 10:30N 45°43' W 125°03'611.3
2017-Jun-18 10:00N 45°39' W 125°09'5 4.6
2017-Jun-18 09:00N 45°36' W 125°13'1 1.9
2017-Jun-18 08:31N 45°36' W 125°12'2 3.3
2017-Jun-18 08:00N 45°38' W 125°12'510.4
2017-Jun-18 07:30N 45°42' W 125°07'3 6.2
2017-Jun-18 07:00N 45°44' W 125°05'2 3.4
2017-Jun-18 06:30N 45°46' W 125°05'2 3.5
2017-Jun-18 06:00N 45°48' W 125°05'2 3.4
2017-Jun-18 05:30N 45°49' W 125°05'5 9.0
2017-Jun-18 05:00N 45°52' W 124°59'3 5.8
2017-Jun-18 04:30N 45°53' W 124°55'1 2.7
2017-Jun-18 04:00N 45°53' W 124°53'1 1.8
2017-Jun-18 03:31N 45°53' W 124°52'0 0.0
2017-Jun-18 03:00N 45°53' W 124°52'0 0.0
2017-Jun-18 02:30N 45°53' W 124°52'0 0.0
2017-Jun-18 02:00N 45°53' W 124°52'0 0.0
2017-Jun-18 01:31N 45°53' W 124°52'0 0.1
2017-Jun-18 01:00N 45°53' W 124°52'0 0.0
2017-Jun-18 00:30N 45°53' W 124°52'0 0.0
2017-Jun-18 00:00N 45°53' W 124°52'0 0.0
2017-Jun-17 23:30N 45°53' W 124°52'0 0.1
2017-Jun-17 23:01N 45°53' W 124°52'1 2.2
2017-Jun-17 22:31N 45°53' W 124°53'3 5.1
2017-Jun-17 22:00N 45°55' W 124°51'510.1
2017-Jun-17 21:31N 45°59' W 124°47'510.2
2017-Jun-17 21:01N 46°03' W 124°43'510.6
2017-Jun-17 20:31N 46°08' W 124°39'510.9
2017-Jun-17 20:00N 46°12' W 124°35'510.7
2017-Jun-17 19:31N 46°17' W 124°30'510.5
2017-Jun-17 19:01N 46°21' W 124°27'5 9.9
2017-Jun-17 18:30N 46°25' W 124°23'3 6.1
2017-Jun-17 18:01N 46°28' W 124°21'1 1.1
2017-Jun-17 17:31N 46°28' W 124°21'1 2.3
2017-Jun-17 17:01N 46°29' W 124°21'0 0.7
2017-Jun-17 16:31N 46°29' W 124°21'1 1.3
2017-Jun-17 16:00N 46°28' W 124°21'0 0.4
2017-Jun-17 15:31N 46°28' W 124°21'0 0.2
2017-Jun-17 15:01N 46°28' W 124°21'0 0.3
2017-Jun-17 14:31N 46°28' W 124°21'0 0.2
2017-Jun-17 13:31N 46°28' W 124°21'1 2.2
2017-Jun-17 13:01N 46°29' W 124°21'1 2.0
2017-Jun-17 12:30N 46°29' W 124°20'2 4.3
2017-Jun-17 12:01N 46°28' W 124°21'3 5.3
2017-Jun-17 11:31N 46°27' W 124°25'510.5
2017-Jun-17 11:00N 46°24' W 124°32'510.6
2017-Jun-17 10:31N 46°22' W 124°38'510.4
2017-Jun-17 10:01N 46°20' W 124°45'510.5
2017-Jun-17 09:31N 46°18' W 124°52'510.7
2017-Jun-17 09:00N 46°16' W 124°60'510.6
2017-Jun-17 08:30N 46°14' W 125°07'3 1.3
2017-Jun-17 06:06N 46°13' W 125°11'1 0.2
2017-Jun-17 03:00N 46°13' W 125°12'9 0.6
2017-Jun-16 11:33N 46°19' W 125°20'1 8.8
2017-Jun-16 11:26N 46°20' W 125°19'4 8.8
2017-Jun-16 11:00N 46°21' W 125°13'4 8.6
2017-Jun-16 10:30N 46°22' W 125°07'2 3.6
2017-Jun-16 10:00N 46°20' W 125°09'5 7.5
2017-Jun-16 09:22N 46°16' W 125°11'3 8.1
2017-Jun-16 08:59N 46°13' W 125°12'3 4.5
2017-Jun-16 08:17N 46°10' W 125°14'2 7.9
2017-Jun-16 08:00N 46°08' W 125°16'2 4.6
2017-Jun-16 07:30N 46°06' W 125°17'4 7.2
2017-Jun-16 06:57N 46°03' W 125°20'7 8.3
2017-Jun-16 06:10N 45°57' W 125°25'18 1.7
2017-Jun-15 19:35N 45°40' W 125°14'1 3.2
2017-Jun-15 19:18N 45°40' W 125°14'1 3.1
2017-Jun-15 18:57N 45°41' W 125°13'1 2.9
2017-Jun-15 18:30N 45°42' W 125°11'1 2.6
2017-Jun-15 18:00N 45°43' W 125°10'1 2.7
2017-Jun-15 17:30N 45°44' W 125°09'  

Dump ship's entire track history